PWSweather.com
Personal Weather Stations
Station Observations
SD92115WX
El Cerrito Stoneybluff, San Diego, CA 92115

El Cerrito StoneybluffSan Diego, CA 92115

Lat: 32.754096, Lon: -117.066705

Elevation: 420

Station Type: Davis Vantage Vue

http://stoneybluff.com

High Low Average
Temperature 82.9°F28.3°C 52.9°F11.6°C 65.4°F18.6°C
Dew Point 50.2°F10.1°C 28.2°F-2.1°C 41.1°F5.1°C
Winds 5.4 mph 8.7 kmh Calm Calm 1.0 mph SSE1.6 kmh SSE
Wind Gusts 11.6 mph18.7 kmh -- 2.0 mph3.2 kmh
Humidity 72% 14% 45%
Pressure 30.02 in1016.6 mb 29.91 in1012.9 mb -
Precipitation 0.00 in0.0 mm - -
Hour Temp Dew Point Humidity Winds Wind Gusts Pressure Precip Precip Rate Daily Precip Total
12:04 AM 55.6°F13.1°C 46.0°F7.8°C 70% Calm Calm -- 29.98 in1015.2 mb 0.00 in0.0 mm 0.00 in0.0 mm 0.00 in0.0 mm
12:09 AM 55.2°F12.9°C 45.7°F7.6°C 70% Calm Calm -- 29.98 in1015.2 mb 0.00 in0.0 mm 0.00 in0.0 mm 0.00 in0.0 mm
12:14 AM 55.2°F12.9°C 46.0°F7.8°C 71% Calm Calm -- 29.98 in1015.2 mb 0.00 in0.0 mm 0.00 in0.0 mm 0.00 in0.0 mm
12:19 AM 55.0°F12.8°C 45.9°F7.7°C 71% Calm Calm -- 29.98 in1015.2 mb 0.00 in0.0 mm 0.00 in0.0 mm 0.00 in0.0 mm
12:24 AM 55.0°F12.8°C 45.9°F7.7°C 71% Calm Calm -- 29.98 in1015.2 mb 0.00 in0.0 mm 0.00 in0.0 mm 0.00 in0.0 mm
12:29 AM 55.0°F12.8°C 45.9°F7.7°C 71% Calm Calm -- 29.97 in1014.9 mb 0.00 in0.0 mm 0.00 in0.0 mm 0.00 in0.0 mm
12:34 AM 54.7°F12.6°C 45.5°F7.5°C 71% Calm Calm -- 29.97 in1014.9 mb 0.00 in0.0 mm 0.00 in0.0 mm 0.00 in0.0 mm
12:39 AM 54.5°F12.5°C 45.3°F7.4°C 71% Calm Calm -- 29.97 in1014.9 mb 0.00 in0.0 mm 0.00 in0.0 mm 0.00 in0.0 mm
12:44 AM 54.7°F12.6°C 45.9°F7.7°C 72% Calm Calm -- 29.97 in1014.9 mb 0.00 in0.0 mm 0.00 in0.0 mm 0.00 in0.0 mm
12:49 AM 54.9°F12.7°C 46.0°F7.8°C 72% Calm Calm -- 29.97 in1014.9 mb 0.00 in0.0 mm 0.00 in0.0 mm 0.00 in0.0 mm
12:54 AM 54.7°F12.6°C 45.5°F7.5°C 71% Calm Calm -- 29.97 in1014.9 mb 0.00 in0.0 mm 0.00 in0.0 mm 0.00 in0.0 mm
12:59 AM 54.5°F12.5°C 45.3°F7.4°C 71% Calm Calm -- 29.97 in1014.9 mb 0.00 in0.0 mm 0.00 in0.0 mm 0.00 in0.0 mm
01:04 AM 54.1°F12.3°C 44.6°F7.0°C 70% Calm Calm -- 29.97 in1014.9 mb 0.00 in0.0 mm 0.00 in0.0 mm 0.00 in0.0 mm
01:09 AM 54.0°F12.2°C 44.4°F6.9°C 70% Calm Calm -- 29.96 in1014.6 mb 0.00 in0.0 mm 0.00 in0.0 mm 0.00 in0.0 mm
01:14 AM 54.1°F12.3°C 44.6°F7.0°C 70% Calm Calm -- 29.96 in1014.6 mb 0.00 in0.0 mm 0.00 in0.0 mm 0.00 in0.0 mm
01:19 AM 54.7°F12.6°C 45.1°F7.3°C 70% Calm Calm -- 29.96 in1014.6 mb 0.00 in0.0 mm 0.00 in0.0 mm 0.00 in0.0 mm
01:24 AM 54.7°F12.6°C 44.8°F7.1°C 69% Calm Calm -- 29.97 in1014.9 mb 0.00 in0.0 mm 0.00 in0.0 mm 0.00 in0.0 mm
01:29 AM 54.3°F12.4°C 44.1°F6.7°C 68% Calm Calm -- 29.96 in1014.6 mb 0.00 in0.0 mm 0.00 in0.0 mm 0.00 in0.0 mm
01:34 AM 54.0°F12.2°C 43.7°F6.5°C 68% Calm Calm -- 29.96 in1014.6 mb 0.00 in0.0 mm 0.00 in0.0 mm 0.00 in0.0 mm
01:39 AM 53.8°F12.1°C 43.5°F6.4°C 68% Calm Calm -- 29.97 in1014.9 mb 0.00 in0.0 mm 0.00 in0.0 mm 0.00 in0.0 mm
01:44 AM 53.2°F11.8°C 43.0°F6.1°C 68% Calm Calm -- 29.97 in1014.9 mb 0.00 in0.0 mm 0.00 in0.0 mm 0.00 in0.0 mm
01:49 AM 53.1°F11.7°C 43.2°F6.2°C 69% Calm Calm -- 29.96 in1014.6 mb 0.00 in0.0 mm 0.00 in0.0 mm 0.00 in0.0 mm
01:54 AM 53.2°F11.8°C 43.7°F6.5°C 70% Calm Calm -- 29.97 in1014.9 mb 0.00 in0.0 mm 0.00 in0.0 mm 0.00 in0.0 mm
01:59 AM 53.8°F12.1°C 44.2°F6.8°C 70% Calm Calm -- 29.97 in1014.9 mb 0.00 in0.0 mm 0.00 in0.0 mm 0.00 in0.0 mm
02:04 AM 54.0°F12.2°C 44.1°F6.7°C 69% Calm Calm -- 29.97 in1014.9 mb 0.00 in0.0 mm 0.00 in0.0 mm 0.00 in0.0 mm
02:09 AM 53.8°F12.1°C 43.9°F6.6°C 69% Calm Calm -- 29.96 in1014.6 mb 0.00 in0.0 mm 0.00 in0.0 mm 0.00 in0.0 mm
02:14 AM 53.4°F11.9°C 43.5°F6.4°C 69% Calm Calm -- 29.96 in1014.6 mb 0.00 in0.0 mm 0.00 in0.0 mm 0.00 in0.0 mm
02:19 AM 53.2°F11.8°C 43.0°F6.1°C 68% Calm Calm -- 29.96 in1014.6 mb 0.00 in0.0 mm 0.00 in0.0 mm 0.00 in0.0 mm
02:24 AM 53.2°F11.8°C 43.0°F6.1°C 68% Calm Calm -- 29.96 in1014.6 mb 0.00 in0.0 mm 0.00 in0.0 mm 0.00 in0.0 mm
02:29 AM 53.2°F11.8°C 43.0°F6.1°C 68% Calm Calm -- 29.96 in1014.6 mb 0.00 in0.0 mm 0.00 in0.0 mm 0.00 in0.0 mm
02:34 AM 53.2°F11.8°C 43.0°F6.1°C 68% Calm Calm -- 29.96 in1014.6 mb 0.00 in0.0 mm 0.00 in0.0 mm 0.00 in0.0 mm
02:39 AM 53.4°F11.9°C 42.3°F5.7°C 66% Calm Calm -- 29.96 in1014.6 mb 0.00 in0.0 mm 0.00 in0.0 mm 0.00 in0.0 mm
02:44 AM 53.6°F12.0°C 41.7°F5.4°C 64% Calm Calm -- 29.96 in1014.6 mb 0.00 in0.0 mm 0.00 in0.0 mm 0.00 in0.0 mm
02:49 AM 53.8°F12.1°C 41.5°F5.3°C 63% Calm Calm -- 29.96 in1014.6 mb 0.00 in0.0 mm 0.00 in0.0 mm 0.00 in0.0 mm
02:54 AM 53.4°F11.9°C 40.6°F4.8°C 62% Calm Calm -- 29.96 in1014.6 mb 0.00 in0.0 mm 0.00 in0.0 mm 0.00 in0.0 mm
02:59 AM 53.4°F11.9°C 40.6°F4.8°C 62% Calm Calm -- 29.96 in1014.6 mb 0.00 in0.0 mm 0.00 in0.0 mm 0.00 in0.0 mm
03:04 AM 53.4°F11.9°C 40.3°F4.6°C 61% Calm Calm -- 29.96 in1014.6 mb 0.00 in0.0 mm 0.00 in0.0 mm 0.00 in0.0 mm
03:09 AM 53.2°F11.8°C 40.1°F4.5°C 61% Calm Calm -- 29.96 in1014.6 mb 0.00 in0.0 mm 0.00 in0.0 mm 0.00 in0.0 mm
03:14 AM 53.4°F11.9°C 40.3°F4.6°C 61% Calm Calm -- 29.96 in1014.6 mb 0.00 in0.0 mm 0.00 in0.0 mm 0.00 in0.0 mm
03:19 AM 53.2°F11.8°C 40.1°F4.5°C 61% Calm Calm -- 29.96 in1014.6 mb 0.00 in0.0 mm 0.00 in0.0 mm 0.00 in0.0 mm
03:24 AM 53.2°F11.8°C 40.1°F4.5°C 61% Calm Calm -- 29.96 in1014.6 mb 0.00 in0.0 mm 0.00 in0.0 mm 0.00 in0.0 mm
03:29 AM 53.4°F11.9°C 39.9°F4.4°C 60% Calm Calm -- 29.97 in1014.9 mb 0.00 in0.0 mm 0.00 in0.0 mm 0.00 in0.0 mm
03:34 AM 53.8°F12.1°C 39.4°F4.1°C 58% Calm Calm 1.1 mph1.8 kmh 29.97 in1014.9 mb 0.00 in0.0 mm 0.00 in0.0 mm 0.00 in0.0 mm
03:39 AM 54.1°F12.3°C 39.2°F4.0°C 57% Calm Calm -- 29.98 in1015.2 mb 0.00 in0.0 mm 0.00 in0.0 mm 0.00 in0.0 mm
03:44 AM 54.0°F12.2°C 38.7°F3.7°C 56% Calm Calm -- 29.97 in1014.9 mb 0.00 in0.0 mm 0.00 in0.0 mm 0.00 in0.0 mm
03:49 AM 53.8°F12.1°C 37.9°F3.3°C 55% Calm Calm -- 29.97 in1014.9 mb 0.00 in0.0 mm 0.00 in0.0 mm 0.00 in0.0 mm
03:54 AM 53.6°F12.0°C 37.8°F3.2°C 55% Calm Calm -- 29.98 in1015.2 mb 0.00 in0.0 mm 0.00 in0.0 mm 0.00 in0.0 mm
03:59 AM 53.4°F11.9°C 38.1°F3.4°C 56% Calm Calm -- 29.97 in1014.9 mb 0.00 in0.0 mm 0.00 in0.0 mm 0.00 in0.0 mm
04:04 AM 53.8°F12.1°C 38.5°F3.6°C 56% Calm Calm -- 29.98 in1015.2 mb 0.00 in0.0 mm 0.00 in0.0 mm 0.00 in0.0 mm
04:09 AM 53.8°F12.1°C 38.5°F3.6°C 56% Calm Calm -- 29.98 in1015.2 mb 0.00 in0.0 mm 0.00 in0.0 mm 0.00 in0.0 mm
04:14 AM 53.8°F12.1°C 38.8°F3.8°C 57% Calm Calm -- 29.98 in1015.2 mb 0.00 in0.0 mm 0.00 in0.0 mm 0.00 in0.0 mm
04:19 AM 53.6°F12.0°C 38.7°F3.7°C 57% Calm Calm -- 29.98 in1015.2 mb 0.00 in0.0 mm 0.00 in0.0 mm 0.00 in0.0 mm
04:24 AM 53.8°F12.1°C 39.4°F4.1°C 58% Calm Calm -- 29.98 in1015.2 mb 0.00 in0.0 mm 0.00 in0.0 mm 0.00 in0.0 mm
04:29 AM 53.8°F12.1°C 39.4°F4.1°C 58% Calm Calm -- 29.98 in1015.2 mb 0.00 in0.0 mm 0.00 in0.0 mm 0.00 in0.0 mm
04:34 AM 53.4°F11.9°C 39.4°F4.1°C 59% Calm Calm -- 29.98 in1015.2 mb 0.00 in0.0 mm 0.00 in0.0 mm 0.00 in0.0 mm
04:39 AM 53.6°F12.0°C 39.2°F4.0°C 58% Calm Calm 1.1 mph1.8 kmh 29.98 in1015.2 mb 0.00 in0.0 mm 0.00 in0.0 mm 0.00 in0.0 mm
04:44 AM 53.6°F12.0°C 39.2°F4.0°C 58% Calm Calm -- 29.98 in1015.2 mb 0.00 in0.0 mm 0.00 in0.0 mm 0.00 in0.0 mm
04:49 AM 53.4°F11.9°C 39.0°F3.9°C 58% Calm Calm -- 29.98 in1015.2 mb 0.00 in0.0 mm 0.00 in0.0 mm 0.00 in0.0 mm
04:54 AM 53.2°F11.8°C 38.8°F3.8°C 58% Calm Calm -- 29.98 in1015.2 mb 0.00 in0.0 mm 0.00 in0.0 mm 0.00 in0.0 mm
04:59 AM 53.2°F11.8°C 38.5°F3.6°C 57% Calm Calm -- 29.98 in1015.2 mb 0.00 in0.0 mm 0.00 in0.0 mm 0.00 in0.0 mm
05:04 AM 53.1°F11.7°C 38.3°F3.5°C 57% Calm Calm -- 29.98 in1015.2 mb 0.00 in0.0 mm 0.00 in0.0 mm 0.00 in0.0 mm
05:09 AM 52.9°F11.6°C 38.1°F3.4°C 57% Calm Calm -- 29.98 in1015.2 mb 0.00 in0.0 mm 0.00 in0.0 mm 0.00 in0.0 mm
05:14 AM 53.1°F11.7°C 38.7°F3.7°C 58% Calm Calm -- 29.98 in1015.2 mb 0.00 in0.0 mm 0.00 in0.0 mm 0.00 in0.0 mm
05:19 AM 53.1°F11.7°C 38.3°F3.5°C 57% Calm Calm -- 29.98 in1015.2 mb 0.00 in0.0 mm 0.00 in0.0 mm 0.00 in0.0 mm
05:24 AM 53.1°F11.7°C 38.3°F3.5°C 57% Calm Calm -- 29.98 in1015.2 mb 0.00 in0.0 mm 0.00 in0.0 mm 0.00 in0.0 mm
05:29 AM 53.2°F11.8°C 37.9°F3.3°C 56% Calm Calm -- 29.98 in1015.2 mb 0.00 in0.0 mm 0.00 in0.0 mm 0.00 in0.0 mm
05:34 AM 53.4°F11.9°C 37.6°F3.1°C 55% Calm Calm -- 29.98 in1015.2 mb 0.00 in0.0 mm 0.00 in0.0 mm 0.00 in0.0 mm
05:39 AM 53.4°F11.9°C 37.2°F2.9°C 54% Calm Calm -- 29.99 in1015.6 mb 0.00 in0.0 mm 0.00 in0.0 mm 0.00 in0.0 mm
05:44 AM 53.8°F12.1°C 37.0°F2.8°C 53% Calm Calm -- 29.98 in1015.2 mb 0.00 in0.0 mm 0.00 in0.0 mm 0.00 in0.0 mm
05:49 AM 53.4°F11.9°C 36.7°F2.6°C 53% Calm Calm -- 29.98 in1015.2 mb 0.00 in0.0 mm 0.00 in0.0 mm 0.00 in0.0 mm
05:54 AM 53.4°F11.9°C 36.3°F2.4°C 52% Calm Calm -- 29.98 in1015.2 mb 0.00 in0.0 mm 0.00 in0.0 mm 0.00 in0.0 mm
05:59 AM 53.2°F11.8°C 36.1°F2.3°C 52% Calm Calm -- 29.98 in1015.2 mb 0.00 in0.0 mm 0.00 in0.0 mm 0.00 in0.0 mm
06:04 AM 53.2°F11.8°C 36.5°F2.5°C 53% Calm Calm 1.1 mph1.8 kmh 29.98 in1015.2 mb 0.00 in0.0 mm 0.00 in0.0 mm 0.00 in0.0 mm
06:09 AM 53.4°F11.9°C 36.7°F2.6°C 53% Calm Calm -- 29.98 in1015.2 mb 0.00 in0.0 mm 0.00 in0.0 mm 0.00 in0.0 mm
06:14 AM 53.6°F12.0°C 36.9°F2.7°C 53% Calm Calm 1.1 mph1.8 kmh 29.98 in1015.2 mb 0.00 in0.0 mm 0.00 in0.0 mm 0.00 in0.0 mm
06:19 AM 53.8°F12.1°C 37.0°F2.8°C 53% Calm Calm -- 29.99 in1015.6 mb 0.00 in0.0 mm 0.00 in0.0 mm 0.00 in0.0 mm
06:24 AM 53.8°F12.1°C 37.0°F2.8°C 53% Calm Calm -- 29.99 in1015.6 mb 0.00 in0.0 mm 0.00 in0.0 mm 0.00 in0.0 mm
06:29 AM 53.6°F12.0°C 36.9°F2.7°C 53% Calm Calm -- 29.99 in1015.6 mb 0.00 in0.0 mm 0.00 in0.0 mm 0.00 in0.0 mm
06:34 AM 53.8°F12.1°C 37.0°F2.8°C 53% Calm Calm -- 29.99 in1015.6 mb 0.00 in0.0 mm 0.00 in0.0 mm 0.00 in0.0 mm
06:39 AM 53.8°F12.1°C 37.0°F2.8°C 53% Calm Calm -- 29.99 in1015.6 mb 0.00 in0.0 mm 0.00 in0.0 mm 0.00 in0.0 mm
06:44 AM 54.0°F12.2°C 37.8°F3.2°C 54% Calm Calm -- 29.99 in1015.6 mb 0.00 in0.0 mm 0.00 in0.0 mm 0.00 in0.0 mm
06:49 AM 54.1°F12.3°C 37.9°F3.3°C 54% Calm Calm -- 29.99 in1015.6 mb 0.00 in0.0 mm 0.00 in0.0 mm 0.00 in0.0 mm
06:54 AM 54.5°F12.5°C 37.8°F3.2°C 53% Calm Calm -- 29.99 in1015.6 mb 0.00 in0.0 mm 0.00 in0.0 mm 0.00 in0.0 mm
06:59 AM 54.9°F12.7°C 38.1°F3.4°C 53% Calm Calm -- 30.00 in1015.9 mb 0.00 in0.0 mm 0.00 in0.0 mm 0.00 in0.0 mm
07:04 AM 55.0°F12.8°C 38.3°F3.5°C 53% Calm Calm -- 30.00 in1015.9 mb 0.00 in0.0 mm 0.00 in0.0 mm 0.00 in0.0 mm
07:09 AM 55.6°F13.1°C 38.3°F3.5°C 52% Calm Calm -- 30.01 in1016.3 mb 0.00 in0.0 mm 0.00 in0.0 mm 0.00 in0.0 mm
07:14 AM 56.5°F13.6°C 38.1°F3.4°C 50% Calm Calm 1.1 mph1.8 kmh 30.01 in1016.3 mb 0.00 in0.0 mm 0.00 in0.0 mm 0.00 in0.0 mm
07:19 AM 57.6°F14.2°C 37.9°F3.3°C 48% 0.2 mph E0.3 kmh E 2.0 mph3.2 kmh 30.01 in1016.3 mb 0.00 in0.0 mm 0.00 in0.0 mm 0.00 in0.0 mm
07:24 AM 58.6°F14.8°C 38.5°F3.6°C 47% Calm Calm 2.0 mph3.2 kmh 30.00 in1015.9 mb 0.00 in0.0 mm 0.00 in0.0 mm 0.00 in0.0 mm
07:29 AM 59.0°F15.0°C 38.3°F3.5°C 46% Calm Calm -- 30.01 in1016.3 mb 0.00 in0.0 mm 0.00 in0.0 mm 0.00 in0.0 mm
07:34 AM 59.9°F15.5°C 37.9°F3.3°C 44% 0.4 mph E0.6 kmh E 5.4 mph8.7 kmh 30.01 in1016.3 mb 0.00 in0.0 mm 0.00 in0.0 mm 0.00 in0.0 mm
07:39 AM 60.6°F15.9°C 37.4°F3.0°C 42% 0.7 mph E1.1 kmh E 3.1 mph5.0 kmh 30.01 in1016.3 mb 0.00 in0.0 mm 0.00 in0.0 mm 0.00 in0.0 mm
07:44 AM 61.3°F16.3°C 36.9°F2.7°C 40% 0.2 mph ESE0.3 kmh ESE 2.0 mph3.2 kmh 30.01 in1016.3 mb 0.00 in0.0 mm 0.00 in0.0 mm 0.00 in0.0 mm
07:49 AM 61.9°F16.6°C 36.7°F2.6°C 39% 0.2 mph E0.3 kmh E 3.1 mph5.0 kmh 30.01 in1016.3 mb 0.00 in0.0 mm 0.00 in0.0 mm 0.00 in0.0 mm
07:54 AM 62.4°F16.9°C 36.5°F2.5°C 38% 0.7 mph E1.1 kmh E 4.3 mph6.9 kmh 30.01 in1016.3 mb 0.00 in0.0 mm 0.00 in0.0 mm 0.00 in0.0 mm
07:59 AM 63.0°F17.2°C 37.0°F2.8°C 38% 0.4 mph E0.6 kmh E 2.0 mph3.2 kmh 30.01 in1016.3 mb 0.00 in0.0 mm 0.00 in0.0 mm 0.00 in0.0 mm
08:04 AM 63.9°F17.7°C 37.8°F3.2°C 38% Calm Calm 3.1 mph5.0 kmh 30.01 in1016.3 mb 0.00 in0.0 mm 0.00 in0.0 mm 0.00 in0.0 mm
08:09 AM 65.1°F18.4°C 37.6°F3.1°C 36% 0.4 mph E0.6 kmh E 2.0 mph3.2 kmh 30.01 in1016.3 mb 0.00 in0.0 mm 0.00 in0.0 mm 0.00 in0.0 mm
08:14 AM 66.2°F19.0°C 38.5°F3.6°C 36% Calm Calm 3.1 mph5.0 kmh 30.01 in1016.3 mb 0.00 in0.0 mm 0.00 in0.0 mm 0.00 in0.0 mm
08:19 AM 66.9°F19.4°C 39.0°F3.9°C 36% Calm Calm -- 30.01 in1016.3 mb 0.00 in0.0 mm 0.00 in0.0 mm 0.00 in0.0 mm
08:24 AM 67.5°F19.7°C 38.8°F3.8°C 35% Calm Calm -- 30.01 in1016.3 mb 0.00 in0.0 mm 0.00 in0.0 mm 0.00 in0.0 mm
08:29 AM 68.0°F20.0°C 39.4°F4.1°C 35% 0.2 mph E0.3 kmh E 2.0 mph3.2 kmh 30.01 in1016.3 mb 0.00 in0.0 mm 0.00 in0.0 mm 0.00 in0.0 mm
08:34 AM 68.5°F20.3°C 39.7°F4.3°C 35% 0.2 mph N0.3 kmh N 1.1 mph1.8 kmh 30.01 in1016.3 mb 0.00 in0.0 mm 0.00 in0.0 mm 0.00 in0.0 mm
08:39 AM 69.1°F20.6°C 39.6°F4.2°C 34% Calm Calm -- 30.01 in1016.3 mb 0.00 in0.0 mm 0.00 in0.0 mm 0.00 in0.0 mm
08:44 AM 69.8°F21.0°C 38.7°F3.7°C 32% 0.2 mph E0.3 kmh E 2.0 mph3.2 kmh 30.01 in1016.3 mb 0.00 in0.0 mm 0.00 in0.0 mm 0.00 in0.0 mm
08:49 AM 70.2°F21.2°C 37.2°F2.9°C 30% Calm Calm 4.3 mph6.9 kmh 30.01 in1016.3 mb 0.00 in0.0 mm 0.00 in0.0 mm 0.00 in0.0 mm
08:54 AM 70.9°F21.6°C 39.6°F4.2°C 32% Calm Calm 2.0 mph3.2 kmh 30.01 in1016.3 mb 0.00 in0.0 mm 0.00 in0.0 mm 0.00 in0.0 mm
08:59 AM 71.4°F21.9°C 37.6°F3.1°C 29% Calm Calm -- 30.01 in1016.3 mb 0.00 in0.0 mm 0.00 in0.0 mm 0.00 in0.0 mm
09:04 AM 71.8°F22.1°C 36.9°F2.7°C 28% 0.7 mph NW1.1 kmh NW 4.3 mph6.9 kmh 30.01 in1016.3 mb 0.00 in0.0 mm 0.00 in0.0 mm 0.00 in0.0 mm
09:09 AM 72.5°F22.5°C 38.5°F3.6°C 29% Calm Calm 1.1 mph1.8 kmh 30.00 in1015.9 mb 0.00 in0.0 mm 0.00 in0.0 mm 0.00 in0.0 mm
09:14 AM 73.0°F22.8°C 37.9°F3.3°C 28% Calm Calm -- 30.00 in1015.9 mb 0.00 in0.0 mm 0.00 in0.0 mm 0.00 in0.0 mm
09:19 AM 73.9°F23.3°C 38.8°F3.8°C 28% 0.4 mph WNW0.6 kmh WNW 3.1 mph5.0 kmh 30.00 in1015.9 mb 0.00 in0.0 mm 0.00 in0.0 mm 0.00 in0.0 mm
09:24 AM 73.9°F23.3°C 36.9°F2.7°C 26% 0.4 mph NW0.6 kmh NW 2.0 mph3.2 kmh 30.00 in1015.9 mb 0.00 in0.0 mm 0.00 in0.0 mm 0.00 in0.0 mm
09:29 AM 74.1°F23.4°C 35.1°F1.7°C 24% 1.1 mph NW1.8 kmh NW 4.3 mph6.9 kmh 30.00 in1015.9 mb 0.00 in0.0 mm 0.00 in0.0 mm 0.00 in0.0 mm
09:34 AM 74.8°F23.8°C 35.6°F2.0°C 24% Calm Calm 3.1 mph5.0 kmh 30.00 in1015.9 mb 0.00 in0.0 mm 0.00 in0.0 mm 0.00 in0.0 mm
09:39 AM 75.4°F24.1°C 34.0°F1.1°C 22% Calm Calm -- 30.00 in1015.9 mb 0.00 in0.0 mm 0.00 in0.0 mm 0.00 in0.0 mm
09:44 AM 75.9°F24.4°C 33.3°F0.7°C 21% 0.2 mph N0.3 kmh N 4.3 mph6.9 kmh 30.00 in1015.9 mb 0.00 in0.0 mm 0.00 in0.0 mm 0.00 in0.0 mm
09:49 AM 76.6°F24.8°C 36.1°F2.3°C 23% 0.2 mph NNE0.3 kmh NNE 2.0 mph3.2 kmh 30.00 in1015.9 mb 0.00 in0.0 mm 0.00 in0.0 mm 0.00 in0.0 mm
09:54 AM 76.5°F24.7°C 36.0°F2.2°C 23% 0.7 mph WSW1.1 kmh WSW 5.4 mph8.7 kmh 30.00 in1015.9 mb 0.00 in0.0 mm 0.00 in0.0 mm 0.00 in0.0 mm
09:59 AM 77.2°F25.1°C 37.6°F3.1°C 24% Calm Calm 2.0 mph3.2 kmh 30.00 in1015.9 mb 0.00 in0.0 mm 0.00 in0.0 mm 0.00 in0.0 mm
10:04 AM 77.5°F25.3°C 36.9°F2.7°C 23% 1.1 mph NW1.8 kmh NW 3.1 mph5.0 kmh 30.00 in1015.9 mb 0.00 in0.0 mm 0.00 in0.0 mm 0.00 in0.0 mm
10:09 AM 77.2°F25.1°C 36.5°F2.5°C 23% 0.7 mph NW1.1 kmh NW 5.4 mph8.7 kmh 29.99 in1015.6 mb 0.00 in0.0 mm 0.00 in0.0 mm 0.00 in0.0 mm
10:14 AM 77.2°F25.1°C 34.2°F1.2°C 21% 1.8 mph WNW2.9 kmh WNW 5.4 mph8.7 kmh 29.99 in1015.6 mb 0.00 in0.0 mm 0.00 in0.0 mm 0.00 in0.0 mm
10:19 AM 77.2°F25.1°C 35.4°F1.9°C 22% 1.1 mph W1.8 kmh W 5.4 mph8.7 kmh 29.99 in1015.6 mb 0.00 in0.0 mm 0.00 in0.0 mm 0.00 in0.0 mm
10:24 AM 77.4°F25.2°C 33.1°F0.6°C 20% 2.0 mph NNW3.2 kmh NNW 5.4 mph8.7 kmh 29.99 in1015.6 mb 0.00 in0.0 mm 0.00 in0.0 mm 0.00 in0.0 mm
10:29 AM 77.5°F25.3°C 34.5°F1.4°C 21% 0.4 mph NW0.6 kmh NW 5.4 mph8.7 kmh 29.99 in1015.6 mb 0.00 in0.0 mm 0.00 in0.0 mm 0.00 in0.0 mm
10:34 AM 77.9°F25.5°C 34.9°F1.6°C 21% 1.1 mph SW1.8 kmh SW 6.3 mph10.1 kmh 29.99 in1015.6 mb 0.00 in0.0 mm 0.00 in0.0 mm 0.00 in0.0 mm
10:39 AM 78.8°F26.0°C 31.6°F-0.2°C 18% 3.1 mph WSW5.0 kmh WSW 8.5 mph13.7 kmh 29.99 in1015.6 mb 0.00 in0.0 mm 0.00 in0.0 mm 0.00 in0.0 mm
10:44 AM 78.4°F25.8°C 34.0°F1.1°C 20% 3.8 mph S6.1 kmh S 8.5 mph13.7 kmh 29.99 in1015.6 mb 0.00 in0.0 mm 0.00 in0.0 mm 0.00 in0.0 mm
10:49 AM 78.4°F25.8°C 32.7°F0.4°C 19% 1.8 mph WNW2.9 kmh WNW 9.6 mph15.4 kmh 29.98 in1015.2 mb 0.00 in0.0 mm 0.00 in0.0 mm 0.00 in0.0 mm
10:54 AM 79.0°F26.1°C 33.3°F0.7°C 19% 1.6 mph NW2.6 kmh NW 9.6 mph15.4 kmh 29.98 in1015.2 mb 0.00 in0.0 mm 0.00 in0.0 mm 0.00 in0.0 mm
10:59 AM 79.3°F26.3°C 33.4°F0.8°C 19% 2.2 mph WNW3.5 kmh WNW 9.6 mph15.4 kmh 29.98 in1015.2 mb 0.00 in0.0 mm 0.00 in0.0 mm 0.00 in0.0 mm
11:04 AM 79.3°F26.3°C 33.4°F0.8°C 19% 4.9 mph WNW7.9 kmh WNW 9.6 mph15.4 kmh 29.98 in1015.2 mb 0.00 in0.0 mm 0.00 in0.0 mm 0.00 in0.0 mm
11:09 AM 79.5°F26.4°C 33.6°F0.9°C 19% 4.3 mph NW6.9 kmh NW 8.5 mph13.7 kmh 29.98 in1015.2 mb 0.00 in0.0 mm 0.00 in0.0 mm 0.00 in0.0 mm
11:14 AM 79.7°F26.5°C 33.8°F1.0°C 19% 4.3 mph WSW6.9 kmh WSW 8.5 mph13.7 kmh 29.98 in1015.2 mb 0.00 in0.0 mm 0.00 in0.0 mm 0.00 in0.0 mm
11:19 AM 79.7°F26.5°C 35.1°F1.7°C 20% 3.1 mph WSW5.0 kmh WSW 9.6 mph15.4 kmh 29.97 in1014.9 mb 0.00 in0.0 mm 0.00 in0.0 mm 0.00 in0.0 mm
11:24 AM 79.9°F26.6°C 35.2°F1.8°C 20% 5.1 mph NW8.2 kmh NW 8.5 mph13.7 kmh 29.97 in1014.9 mb 0.00 in0.0 mm 0.00 in0.0 mm 0.00 in0.0 mm
11:29 AM 79.9°F26.6°C 35.2°F1.8°C 20% 4.9 mph SW7.9 kmh SW 9.6 mph15.4 kmh 29.97 in1014.9 mb 0.00 in0.0 mm 0.00 in0.0 mm 0.00 in0.0 mm
11:34 AM 80.2°F26.8°C 34.2°F1.2°C 19% 3.1 mph SW5.0 kmh SW 7.4 mph11.9 kmh 29.96 in1014.6 mb 0.00 in0.0 mm 0.00 in0.0 mm 0.00 in0.0 mm
11:39 AM 80.2°F26.8°C 34.2°F1.2°C 19% 3.8 mph W6.1 kmh W 7.4 mph11.9 kmh 29.96 in1014.6 mb 0.00 in0.0 mm 0.00 in0.0 mm 0.00 in0.0 mm
11:44 AM 80.4°F26.9°C 34.3°F1.3°C 19% 4.5 mph NW7.2 kmh NW 8.5 mph13.7 kmh 29.96 in1014.6 mb 0.00 in0.0 mm 0.00 in0.0 mm 0.00 in0.0 mm
11:49 AM 79.9°F26.6°C 32.5°F0.3°C 18% 3.4 mph NW5.5 kmh NW 7.4 mph11.9 kmh 29.96 in1014.6 mb 0.00 in0.0 mm 0.00 in0.0 mm 0.00 in0.0 mm
11:54 AM 80.4°F26.9°C 34.3°F1.3°C 19% 1.6 mph WSW2.6 kmh WSW 10.5 mph16.9 kmh 29.96 in1014.6 mb 0.00 in0.0 mm 0.00 in0.0 mm 0.00 in0.0 mm
11:59 AM 80.2°F26.8°C 32.9°F0.5°C 18% 2.5 mph WSW4.0 kmh WSW 7.4 mph11.9 kmh 29.95 in1014.2 mb 0.00 in0.0 mm 0.00 in0.0 mm 0.00 in0.0 mm
12:04 PM 80.8°F27.1°C 31.8°F-0.1°C 17% 2.5 mph SW4.0 kmh SW 8.5 mph13.7 kmh 29.95 in1014.2 mb 0.00 in0.0 mm 0.00 in0.0 mm 0.00 in0.0 mm
12:09 PM 80.8°F27.1°C 33.3°F0.7°C 18% 2.2 mph SW3.5 kmh SW 8.5 mph13.7 kmh 29.94 in1013.9 mb 0.00 in0.0 mm 0.00 in0.0 mm 0.00 in0.0 mm
12:14 PM 81.0°F27.2°C 33.4°F0.8°C 18% 2.7 mph W4.3 kmh W 9.6 mph15.4 kmh 29.94 in1013.9 mb 0.00 in0.0 mm 0.00 in0.0 mm 0.00 in0.0 mm
12:19 PM 81.3°F27.4°C 33.8°F1.0°C 18% 2.7 mph WSW4.3 kmh WSW 7.4 mph11.9 kmh 29.94 in1013.9 mb 0.00 in0.0 mm 0.00 in0.0 mm 0.00 in0.0 mm
12:24 PM 81.3°F27.4°C 33.8°F1.0°C 18% 3.6 mph W5.8 kmh W 6.3 mph10.1 kmh 29.93 in1013.5 mb 0.00 in0.0 mm 0.00 in0.0 mm 0.00 in0.0 mm
12:29 PM 81.3°F27.4°C 33.8°F1.0°C 18% 4.9 mph SSW7.9 kmh SSW 11.6 mph18.7 kmh 29.93 in1013.5 mb 0.00 in0.0 mm 0.00 in0.0 mm 0.00 in0.0 mm
12:34 PM 81.9°F27.7°C 34.2°F1.2°C 18% 2.5 mph SW4.0 kmh SW 7.4 mph11.9 kmh 29.93 in1013.5 mb 0.00 in0.0 mm 0.00 in0.0 mm 0.00 in0.0 mm
12:39 PM 82.0°F27.8°C 32.9°F0.5°C 17% 3.8 mph WSW6.1 kmh WSW 9.6 mph15.4 kmh 29.93 in1013.5 mb 0.00 in0.0 mm 0.00 in0.0 mm 0.00 in0.0 mm
12:44 PM 82.2°F27.9°C 33.1°F0.6°C 17% 2.7 mph W4.3 kmh W 7.4 mph11.9 kmh 29.93 in1013.5 mb 0.00 in0.0 mm 0.00 in0.0 mm 0.00 in0.0 mm
12:49 PM 82.0°F27.8°C 32.9°F0.5°C 17% 3.4 mph W5.5 kmh W 5.4 mph8.7 kmh 29.92 in1013.2 mb 0.00 in0.0 mm 0.00 in0.0 mm 0.00 in0.0 mm
12:54 PM 82.2°F27.9°C 31.6°F-0.2°C 16% 4.7 mph SW7.6 kmh SW 9.6 mph15.4 kmh 29.92 in1013.2 mb 0.00 in0.0 mm 0.00 in0.0 mm 0.00 in0.0 mm
12:59 PM 82.8°F28.2°C 32.0°F0.0°C 16% 0.7 mph NW1.1 kmh NW 6.3 mph10.1 kmh 29.92 in1013.2 mb 0.00 in0.0 mm 0.00 in0.0 mm 0.00 in0.0 mm
01:04 PM 82.9°F28.3°C 30.6°F-0.8°C 15% 2.9 mph NW4.7 kmh NW 10.5 mph16.9 kmh 29.91 in1012.9 mb 0.00 in0.0 mm 0.00 in0.0 mm 0.00 in0.0 mm
01:09 PM 82.8°F28.2°C 30.4°F-0.9°C 15% 3.6 mph WSW5.8 kmh WSW 6.3 mph10.1 kmh 29.92 in1013.2 mb 0.00 in0.0 mm 0.00 in0.0 mm 0.00 in0.0 mm
01:14 PM 82.6°F28.1°C 30.2°F-1.0°C 15% 2.2 mph WSW3.5 kmh WSW 6.3 mph10.1 kmh 29.91 in1012.9 mb 0.00 in0.0 mm 0.00 in0.0 mm 0.00 in0.0 mm
01:19 PM 82.2°F27.9°C 28.2°F-2.1°C 14% 2.5 mph N4.0 kmh N 6.3 mph10.1 kmh 29.91 in1012.9 mb 0.00 in0.0 mm 0.00 in0.0 mm 0.00 in0.0 mm
01:24 PM 82.6°F28.1°C 31.8°F-0.1°C 16% 2.5 mph WNW4.0 kmh WNW 5.4 mph8.7 kmh 29.91 in1012.9 mb 0.00 in0.0 mm 0.00 in0.0 mm 0.00 in0.0 mm
01:29 PM 82.8°F28.2°C 32.0°F0.0°C 16% 3.4 mph WNW5.5 kmh WNW 9.6 mph15.4 kmh 29.91 in1012.9 mb 0.00 in0.0 mm 0.00 in0.0 mm 0.00 in0.0 mm
01:34 PM 82.8°F28.2°C 33.4°F0.8°C 17% 3.6 mph WNW5.8 kmh WNW 9.6 mph15.4 kmh 29.91 in1012.9 mb 0.00 in0.0 mm 0.00 in0.0 mm 0.00 in0.0 mm
01:39 PM 82.2°F27.9°C 33.1°F0.6°C 17% 3.4 mph WSW5.5 kmh WSW 8.5 mph13.7 kmh 29.91 in1012.9 mb 0.00 in0.0 mm 0.00 in0.0 mm 0.00 in0.0 mm
01:44 PM 82.6°F28.1°C 33.4°F0.8°C 17% 2.7 mph SW4.3 kmh SW 7.4 mph11.9 kmh 29.91 in1012.9 mb 0.00 in0.0 mm 0.00 in0.0 mm 0.00 in0.0 mm
01:49 PM 82.4°F28.0°C 36.0°F2.2°C 19% 2.5 mph WSW4.0 kmh WSW 7.4 mph11.9 kmh 29.91 in1012.9 mb 0.00 in0.0 mm 0.00 in0.0 mm 0.00 in0.0 mm
01:54 PM 82.4°F28.0°C 36.0°F2.2°C 19% 4.9 mph WNW7.9 kmh WNW 8.5 mph13.7 kmh 29.91 in1012.9 mb 0.00 in0.0 mm 0.00 in0.0 mm 0.00 in0.0 mm
01:59 PM 81.9°F27.7°C 38.1°F3.4°C 21% 4.7 mph WSW7.6 kmh WSW 8.5 mph13.7 kmh 29.91 in1012.9 mb 0.00 in0.0 mm 0.00 in0.0 mm 0.00 in0.0 mm
02:04 PM 81.3°F27.4°C 37.6°F3.1°C 21% 4.3 mph SW6.9 kmh SW 9.6 mph15.4 kmh 29.91 in1012.9 mb 0.00 in0.0 mm 0.00 in0.0 mm 0.00 in0.0 mm
02:09 PM 81.7°F27.6°C 37.9°F3.3°C 21% 4.5 mph WNW7.2 kmh WNW 8.5 mph13.7 kmh 29.91 in1012.9 mb 0.00 in0.0 mm 0.00 in0.0 mm 0.00 in0.0 mm
02:14 PM 81.3°F27.4°C 38.8°F3.8°C 22% 2.9 mph NW4.7 kmh NW 10.5 mph16.9 kmh 29.91 in1012.9 mb 0.00 in0.0 mm 0.00 in0.0 mm 0.00 in0.0 mm
02:19 PM 80.4°F26.9°C 40.3°F4.6°C 24% 5.1 mph WSW8.2 kmh WSW 10.5 mph16.9 kmh 29.91 in1012.9 mb 0.00 in0.0 mm 0.00 in0.0 mm 0.00 in0.0 mm
02:24 PM 79.5°F26.4°C 41.5°F5.3°C 26% 2.5 mph NW4.0 kmh NW 10.5 mph16.9 kmh 29.91 in1012.9 mb 0.00 in0.0 mm 0.00 in0.0 mm 0.00 in0.0 mm
02:29 PM 79.3°F26.3°C 41.5°F5.3°C 26% 5.4 mph WSW8.7 kmh WSW 8.5 mph13.7 kmh 29.91 in1012.9 mb 0.00 in0.0 mm 0.00 in0.0 mm 0.00 in0.0 mm
02:34 PM 79.3°F26.3°C 42.4°F5.8°C 27% 5.4 mph W8.7 kmh W 8.5 mph13.7 kmh 29.92 in1013.2 mb 0.00 in0.0 mm 0.00 in0.0 mm 0.00 in0.0 mm
02:39 PM 78.6°F25.9°C 42.8°F6.0°C 28% 2.9 mph WSW4.7 kmh WSW 10.5 mph16.9 kmh 29.91 in1012.9 mb 0.00 in0.0 mm 0.00 in0.0 mm 0.00 in0.0 mm
02:44 PM 78.4°F25.8°C 43.5°F6.4°C 29% 3.6 mph SW5.8 kmh SW 8.5 mph13.7 kmh 29.92 in1013.2 mb 0.00 in0.0 mm 0.00 in0.0 mm 0.00 in0.0 mm
02:49 PM 78.1°F25.6°C 45.0°F7.2°C 31% 3.6 mph NW5.8 kmh NW 6.3 mph10.1 kmh 29.92 in1013.2 mb 0.00 in0.0 mm 0.00 in0.0 mm 0.00 in0.0 mm
02:54 PM 77.7°F25.4°C 44.6°F7.0°C 31% 3.4 mph WSW5.5 kmh WSW 7.4 mph11.9 kmh 29.92 in1013.2 mb 0.00 in0.0 mm 0.00 in0.0 mm 0.00 in0.0 mm
02:59 PM 77.4°F25.2°C 46.0°F7.8°C 33% 2.9 mph NW4.7 kmh NW 5.4 mph8.7 kmh 29.92 in1013.2 mb 0.00 in0.0 mm 0.00 in0.0 mm 0.00 in0.0 mm
03:04 PM 77.5°F25.3°C 46.2°F7.9°C 33% 1.8 mph SW2.9 kmh SW 6.3 mph10.1 kmh 29.92 in1013.2 mb 0.00 in0.0 mm 0.00 in0.0 mm 0.00 in0.0 mm
03:09 PM 77.2°F25.1°C 44.2°F6.8°C 31% 2.9 mph WSW4.7 kmh WSW 6.3 mph10.1 kmh 29.92 in1013.2 mb 0.00 in0.0 mm 0.00 in0.0 mm 0.00 in0.0 mm
03:14 PM 77.2°F25.1°C 44.2°F6.8°C 31% 2.5 mph W4.0 kmh W 7.4 mph11.9 kmh 29.93 in1013.5 mb 0.00 in0.0 mm 0.00 in0.0 mm 0.00 in0.0 mm
03:19 PM 76.5°F24.7°C 44.4°F6.9°C 32% 3.6 mph WNW5.8 kmh WNW 9.6 mph15.4 kmh 29.92 in1013.2 mb 0.00 in0.0 mm 0.00 in0.0 mm 0.00 in0.0 mm
03:24 PM 76.1°F24.5°C 44.1°F6.7°C 32% 1.3 mph WSW2.1 kmh WSW 7.4 mph11.9 kmh 29.92 in1013.2 mb 0.00 in0.0 mm 0.00 in0.0 mm 0.00 in0.0 mm
03:29 PM 75.7°F24.3°C 45.3°F7.4°C 34% 3.8 mph WSW6.1 kmh WSW 7.4 mph11.9 kmh 29.91 in1012.9 mb 0.00 in0.0 mm 0.00 in0.0 mm 0.00 in0.0 mm
03:34 PM 75.9°F24.4°C 46.2°F7.9°C 35% 3.6 mph SW5.8 kmh SW 6.3 mph10.1 kmh 29.91 in1012.9 mb 0.00 in0.0 mm 0.00 in0.0 mm 0.00 in0.0 mm
03:39 PM 75.9°F24.4°C 46.2°F7.9°C 35% 1.6 mph WSW2.6 kmh WSW 6.3 mph10.1 kmh 29.92 in1013.2 mb 0.00 in0.0 mm 0.00 in0.0 mm 0.00 in0.0 mm
03:44 PM 76.3°F24.6°C 45.9°F7.7°C 34% 2.9 mph NW4.7 kmh NW 5.4 mph8.7 kmh 29.92 in1013.2 mb 0.00 in0.0 mm 0.00 in0.0 mm 0.00 in0.0 mm
03:49 PM 75.7°F24.3°C 44.6°F7.0°C 33% 2.7 mph WSW4.3 kmh WSW 6.3 mph10.1 kmh 29.92 in1013.2 mb 0.00 in0.0 mm 0.00 in0.0 mm 0.00 in0.0 mm
03:54 PM 75.7°F24.3°C 45.3°F7.4°C 34% 1.3 mph NW2.1 kmh NW 4.3 mph6.9 kmh 29.92 in1013.2 mb 0.00 in0.0 mm 0.00 in0.0 mm 0.00 in0.0 mm
03:59 PM 75.4°F24.1°C 45.9°F7.7°C 35% 0.7 mph WSW1.1 kmh WSW 3.1 mph5.0 kmh 29.92 in1013.2 mb 0.00 in0.0 mm 0.00 in0.0 mm 0.00 in0.0 mm
04:04 PM 75.4°F24.1°C 46.6°F8.1°C 36% Calm Calm 3.1 mph5.0 kmh 29.92 in1013.2 mb 0.00 in0.0 mm 0.00 in0.0 mm 0.00 in0.0 mm
04:09 PM 75.0°F23.9°C 46.9°F8.3°C 37% Calm Calm 2.0 mph3.2 kmh 29.92 in1013.2 mb 0.00 in0.0 mm 0.00 in0.0 mm 0.00 in0.0 mm
04:14 PM 74.5°F23.6°C 47.8°F8.8°C 39% 1.8 mph W2.9 kmh W 3.1 mph5.0 kmh 29.92 in1013.2 mb 0.00 in0.0 mm 0.00 in0.0 mm 0.00 in0.0 mm
04:19 PM 73.9°F23.3°C 48.0°F8.9°C 40% 0.4 mph WNW0.6 kmh WNW 3.1 mph5.0 kmh 29.92 in1013.2 mb 0.00 in0.0 mm 0.00 in0.0 mm 0.00 in0.0 mm
04:24 PM 73.6°F23.1°C 48.4°F9.1°C 41% 0.4 mph NW0.6 kmh NW 2.0 mph3.2 kmh 29.93 in1013.5 mb 0.00 in0.0 mm 0.00 in0.0 mm 0.00 in0.0 mm
04:29 PM 73.2°F22.9°C 48.7°F9.3°C 42% Calm Calm 2.0 mph3.2 kmh 29.93 in1013.5 mb 0.00 in0.0 mm 0.00 in0.0 mm 0.00 in0.0 mm
04:34 PM 73.0°F22.8°C 49.8°F9.9°C 44% 1.1 mph NW1.8 kmh NW 3.1 mph5.0 kmh 29.93 in1013.5 mb 0.00 in0.0 mm 0.00 in0.0 mm 0.00 in0.0 mm
04:39 PM 72.7°F22.6°C 50.2°F10.1°C 45% Calm Calm 2.0 mph3.2 kmh 29.93 in1013.5 mb 0.00 in0.0 mm 0.00 in0.0 mm 0.00 in0.0 mm
04:44 PM 72.1°F22.3°C 50.2°F10.1°C 46% Calm Calm -- 29.93 in1013.5 mb 0.00 in0.0 mm 0.00 in0.0 mm 0.00 in0.0 mm
04:49 PM 72.0°F22.2°C 50.0°F10.0°C 46% 0.2 mph NW0.3 kmh NW 1.1 mph1.8 kmh 29.93 in1013.5 mb 0.00 in0.0 mm 0.00 in0.0 mm 0.00 in0.0 mm
04:54 PM 71.6°F22.0°C 49.6°F9.8°C 46% Calm Calm -- 29.93 in1013.5 mb 0.00 in0.0 mm 0.00 in0.0 mm 0.00 in0.0 mm
04:59 PM 71.2°F21.8°C 49.5°F9.7°C 46% Calm Calm -- 29.94 in1013.9 mb 0.00 in0.0 mm 0.00 in0.0 mm 0.00 in0.0 mm
05:04 PM 70.9°F21.6°C 49.6°F9.8°C 47% Calm Calm -- 29.94 in1013.9 mb 0.00 in0.0 mm 0.00 in0.0 mm 0.00 in0.0 mm
05:09 PM 70.5°F21.4°C 49.3°F9.6°C 47% Calm Calm -- 29.94 in1013.9 mb 0.00 in0.0 mm 0.00 in0.0 mm 0.00 in0.0 mm
05:14 PM 70.3°F21.3°C 49.6°F9.8°C 48% Calm Calm -- 29.95 in1014.2 mb 0.00 in0.0 mm 0.00 in0.0 mm 0.00 in0.0 mm
05:19 PM 70.2°F21.2°C 49.6°F9.8°C 48% Calm Calm -- 29.95 in1014.2 mb 0.00 in0.0 mm 0.00 in0.0 mm 0.00 in0.0 mm
05:24 PM 70.0°F21.1°C 49.5°F9.7°C 48% 0.9 mph NW1.4 kmh NW 3.1 mph5.0 kmh 29.95 in1014.2 mb 0.00 in0.0 mm 0.00 in0.0 mm 0.00 in0.0 mm
05:29 PM 69.8°F21.0°C 49.3°F9.6°C 48% Calm Calm 1.1 mph1.8 kmh 29.95 in1014.2 mb 0.00 in0.0 mm 0.00 in0.0 mm 0.00 in0.0 mm
05:34 PM 69.4°F20.8°C 48.9°F9.4°C 48% Calm Calm -- 29.96 in1014.6 mb 0.00 in0.0 mm 0.00 in0.0 mm 0.00 in0.0 mm
05:39 PM 69.1°F20.6°C 49.6°F9.8°C 50% Calm Calm -- 29.96 in1014.6 mb 0.00 in0.0 mm 0.00 in0.0 mm 0.00 in0.0 mm
05:44 PM 68.7°F20.4°C 49.3°F9.6°C 50% Calm Calm -- 29.96 in1014.6 mb 0.00 in0.0 mm 0.00 in0.0 mm 0.00 in0.0 mm
05:49 PM 68.4°F20.2°C 49.5°F9.7°C 51% Calm Calm -- 29.96 in1014.6 mb 0.00 in0.0 mm 0.00 in0.0 mm 0.00 in0.0 mm
05:54 PM 68.2°F20.1°C 49.3°F9.6°C 51% Calm Calm -- 29.96 in1014.6 mb 0.00 in0.0 mm 0.00 in0.0 mm 0.00 in0.0 mm
05:59 PM 67.8°F19.9°C 49.1°F9.5°C 51% Calm Calm -- 29.96 in1014.6 mb 0.00 in0.0 mm 0.00 in0.0 mm 0.00 in0.0 mm
06:04 PM 67.6°F19.8°C 48.9°F9.4°C 51% Calm Calm -- 29.96 in1014.6 mb 0.00 in0.0 mm 0.00 in0.0 mm 0.00 in0.0 mm
06:09 PM 67.3°F19.6°C 49.1°F9.5°C 52% Calm Calm -- 29.96 in1014.6 mb 0.00 in0.0 mm 0.00 in0.0 mm 0.00 in0.0 mm
06:14 PM 66.7°F19.3°C 49.1°F9.5°C 53% Calm Calm -- 29.96 in1014.6 mb 0.00 in0.0 mm 0.00 in0.0 mm 0.00 in0.0 mm
06:19 PM 66.6°F19.2°C 47.8°F8.8°C 51% Calm Calm -- 29.97 in1014.9 mb 0.00 in0.0 mm 0.00 in0.0 mm 0.00 in0.0 mm
06:24 PM 66.9°F19.4°C 47.7°F8.7°C 50% 0.9 mph NW1.4 kmh NW 2.0 mph3.2 kmh 29.97 in1014.9 mb 0.00 in0.0 mm 0.00 in0.0 mm 0.00 in0.0 mm
06:29 PM 67.5°F19.7°C 47.1°F8.4°C 48% Calm Calm -- 29.97 in1014.9 mb 0.00 in0.0 mm 0.00 in0.0 mm 0.00 in0.0 mm
06:34 PM 67.1°F19.5°C 47.3°F8.5°C 49% Calm Calm -- 29.97 in1014.9 mb 0.00 in0.0 mm 0.00 in0.0 mm 0.00 in0.0 mm
06:39 PM 66.6°F19.2°C 45.7°F7.6°C 47% Calm Calm -- 29.97 in1014.9 mb 0.00 in0.0 mm 0.00 in0.0 mm 0.00 in0.0 mm
06:44 PM 66.6°F19.2°C 46.2°F7.9°C 48% Calm Calm -- 29.97 in1014.9 mb 0.00 in0.0 mm 0.00 in0.0 mm 0.00 in0.0 mm
06:49 PM 66.4°F19.1°C 46.6°F8.1°C 49% Calm Calm -- 29.98 in1015.2 mb 0.00 in0.0 mm 0.00 in0.0 mm 0.00 in0.0 mm
06:54 PM 66.4°F19.1°C 46.6°F8.1°C 49% Calm Calm -- 29.98 in1015.2 mb 0.00 in0.0 mm 0.00 in0.0 mm 0.00 in0.0 mm
06:59 PM 65.8°F18.8°C 47.1°F8.4°C 51% Calm Calm -- 29.98 in1015.2 mb 0.00 in0.0 mm 0.00 in0.0 mm 0.00 in0.0 mm
07:04 PM 65.3°F18.5°C 47.3°F8.5°C 52% Calm Calm -- 29.98 in1015.2 mb 0.00 in0.0 mm 0.00 in0.0 mm 0.00 in0.0 mm
07:09 PM 64.8°F18.2°C 46.8°F8.2°C 52% Calm Calm -- 29.98 in1015.2 mb 0.00 in0.0 mm 0.00 in0.0 mm 0.00 in0.0 mm
07:14 PM 64.6°F18.1°C 47.5°F8.6°C 54% Calm Calm -- 29.98 in1015.2 mb 0.00 in0.0 mm 0.00 in0.0 mm 0.00 in0.0 mm
07:19 PM 64.6°F18.1°C 48.0°F8.9°C 55% Calm Calm -- 29.98 in1015.2 mb 0.00 in0.0 mm 0.00 in0.0 mm 0.00 in0.0 mm
07:24 PM 64.2°F17.9°C 48.2°F9.0°C 56% Calm Calm -- 29.98 in1015.2 mb 0.00 in0.0 mm 0.00 in0.0 mm 0.00 in0.0 mm
07:29 PM 64.0°F17.8°C 48.0°F8.9°C 56% Calm Calm -- 29.98 in1015.2 mb 0.00 in0.0 mm 0.00 in0.0 mm 0.00 in0.0 mm
07:34 PM 63.3°F17.4°C 47.3°F8.5°C 56% Calm Calm -- 29.98 in1015.2 mb 0.00 in0.0 mm 0.00 in0.0 mm 0.00 in0.0 mm
07:39 PM 63.3°F17.4°C 47.8°F8.8°C 57% Calm Calm 1.1 mph1.8 kmh 29.99 in1015.6 mb 0.00 in0.0 mm 0.00 in0.0 mm 0.00 in0.0 mm
07:44 PM 63.5°F17.5°C 48.0°F8.9°C 57% Calm Calm -- 30.00 in1015.9 mb 0.00 in0.0 mm 0.00 in0.0 mm 0.00 in0.0 mm
07:49 PM 63.3°F17.4°C 47.8°F8.8°C 57% Calm Calm -- 30.00 in1015.9 mb 0.00 in0.0 mm 0.00 in0.0 mm 0.00 in0.0 mm
07:54 PM 63.3°F17.4°C 47.3°F8.5°C 56% Calm Calm -- 29.99 in1015.6 mb 0.00 in0.0 mm 0.00 in0.0 mm 0.00 in0.0 mm
07:59 PM 63.1°F17.3°C 47.1°F8.4°C 56% Calm Calm -- 29.99 in1015.6 mb 0.00 in0.0 mm 0.00 in0.0 mm 0.00 in0.0 mm
08:04 PM 62.8°F17.1°C 46.4°F8.0°C 55% Calm Calm -- 30.00 in1015.9 mb 0.00 in0.0 mm 0.00 in0.0 mm 0.00 in0.0 mm
08:09 PM 63.1°F17.3°C 46.2°F7.9°C 54% Calm Calm -- 30.00 in1015.9 mb 0.00 in0.0 mm 0.00 in0.0 mm 0.00 in0.0 mm
08:14 PM 63.1°F17.3°C 46.2°F7.9°C 54% Calm Calm -- 30.00 in1015.9 mb 0.00 in0.0 mm 0.00 in0.0 mm 0.00 in0.0 mm
08:19 PM 63.0°F17.2°C 46.6°F8.1°C 55% Calm Calm -- 30.00 in1015.9 mb 0.00 in0.0 mm 0.00 in0.0 mm 0.00 in0.0 mm
08:24 PM 62.4°F16.9°C 46.0°F7.8°C 55% Calm Calm -- 30.00 in1015.9 mb 0.00 in0.0 mm 0.00 in0.0 mm 0.00 in0.0 mm
08:29 PM 62.8°F17.1°C 45.3°F7.4°C 53% Calm Calm -- 30.00 in1015.9 mb 0.00 in0.0 mm 0.00 in0.0 mm 0.00 in0.0 mm
08:34 PM 62.8°F17.1°C 45.3°F7.4°C 53% Calm Calm -- 30.01 in1016.3 mb 0.00 in0.0 mm 0.00 in0.0 mm 0.00 in0.0 mm
08:39 PM 62.4°F16.9°C 46.9°F8.3°C 57% Calm Calm -- 30.01 in1016.3 mb 0.00 in0.0 mm 0.00 in0.0 mm 0.00 in0.0 mm
08:44 PM 61.9°F16.6°C 47.5°F8.6°C 59% Calm Calm -- 30.01 in1016.3 mb 0.00 in0.0 mm 0.00 in0.0 mm 0.00 in0.0 mm
08:49 PM 61.5°F16.4°C 47.1°F8.4°C 59% Calm Calm -- 30.01 in1016.3 mb 0.00 in0.0 mm 0.00 in0.0 mm 0.00 in0.0 mm
08:54 PM 61.3°F16.3°C 46.9°F8.3°C 59% Calm Calm -- 30.00 in1015.9 mb 0.00 in0.0 mm 0.00 in0.0 mm 0.00 in0.0 mm
08:59 PM 61.3°F16.3°C 47.3°F8.5°C 60% Calm Calm 1.1 mph1.8 kmh 30.00 in1015.9 mb 0.00 in0.0 mm 0.00 in0.0 mm 0.00 in0.0 mm
09:04 PM 61.3°F16.3°C 47.3°F8.5°C 60% 0.2 mph E0.3 kmh E 2.0 mph3.2 kmh 30.01 in1016.3 mb 0.00 in0.0 mm 0.00 in0.0 mm 0.00 in0.0 mm
09:09 PM 61.2°F16.2°C 47.1°F8.4°C 60% Calm Calm 2.0 mph3.2 kmh 30.00 in1015.9 mb 0.00 in0.0 mm 0.00 in0.0 mm 0.00 in0.0 mm
09:14 PM 60.6°F15.9°C 47.1°F8.4°C 61% Calm Calm -- 30.01 in1016.3 mb 0.00 in0.0 mm 0.00 in0.0 mm 0.00 in0.0 mm
09:19 PM 60.3°F15.7°C 46.8°F8.2°C 61% Calm Calm -- 30.01 in1016.3 mb 0.00 in0.0 mm 0.00 in0.0 mm 0.00 in0.0 mm
09:24 PM 60.1°F15.6°C 46.6°F8.1°C 61% Calm Calm 1.1 mph1.8 kmh 30.01 in1016.3 mb 0.00 in0.0 mm 0.00 in0.0 mm 0.00 in0.0 mm
09:29 PM 59.9°F15.5°C 46.8°F8.2°C 62% Calm Calm -- 30.01 in1016.3 mb 0.00 in0.0 mm 0.00 in0.0 mm 0.00 in0.0 mm
09:34 PM 59.9°F15.5°C 46.8°F8.2°C 62% Calm Calm -- 30.01 in1016.3 mb 0.00 in0.0 mm 0.00 in0.0 mm 0.00 in0.0 mm
09:39 PM 60.1°F15.6°C 46.6°F8.1°C 61% Calm Calm -- 30.01 in1016.3 mb 0.00 in0.0 mm 0.00 in0.0 mm 0.00 in0.0 mm
09:44 PM 60.1°F15.6°C 45.7°F7.6°C 59% Calm Calm -- 30.01 in1016.3 mb 0.00 in0.0 mm 0.00 in0.0 mm 0.00 in0.0 mm
09:49 PM 60.1°F15.6°C 45.3°F7.4°C 58% Calm Calm -- 30.01 in1016.3 mb 0.00 in0.0 mm 0.00 in0.0 mm 0.00 in0.0 mm
09:54 PM 60.1°F15.6°C 44.8°F7.1°C 57% Calm Calm -- 30.01 in1016.3 mb 0.00 in0.0 mm 0.00 in0.0 mm 0.00 in0.0 mm
09:59 PM 60.1°F15.6°C 43.3°F6.3°C 54% Calm Calm -- 30.01 in1016.3 mb 0.00 in0.0 mm 0.00 in0.0 mm 0.00 in0.0 mm
10:04 PM 60.3°F15.7°C 44.4°F6.9°C 56% Calm Calm -- 30.01 in1016.3 mb 0.00 in0.0 mm 0.00 in0.0 mm 0.00 in0.0 mm
10:09 PM 59.9°F15.5°C 43.2°F6.2°C 54% Calm Calm -- 30.01 in1016.3 mb 0.00 in0.0 mm 0.00 in0.0 mm 0.00 in0.0 mm
10:14 PM 59.9°F15.5°C 41.7°F5.4°C 51% Calm Calm -- 30.01 in1016.3 mb 0.00 in0.0 mm 0.00 in0.0 mm 0.00 in0.0 mm
10:19 PM 60.1°F15.6°C 42.4°F5.8°C 52% Calm Calm -- 30.01 in1016.3 mb 0.00 in0.0 mm 0.00 in0.0 mm 0.00 in0.0 mm
10:24 PM 60.1°F15.6°C 43.0°F6.1°C 53% Calm Calm -- 30.01 in1016.3 mb 0.00 in0.0 mm 0.00 in0.0 mm 0.00 in0.0 mm
10:29 PM 59.9°F15.5°C 44.2°F6.8°C 56% Calm Calm 1.1 mph1.8 kmh 30.01 in1016.3 mb 0.00 in0.0 mm 0.00 in0.0 mm 0.00 in0.0 mm
10:34 PM 59.4°F15.2°C 43.7°F6.5°C 56% Calm Calm -- 30.02 in1016.6 mb 0.00 in0.0 mm 0.00 in0.0 mm 0.00 in0.0 mm
10:39 PM 58.8°F14.9°C 43.2°F6.2°C 56% Calm Calm -- 30.02 in1016.6 mb 0.00 in0.0 mm 0.00 in0.0 mm 0.00 in0.0 mm
10:44 PM 58.5°F14.7°C 42.4°F5.8°C 55% Calm Calm -- 30.02 in1016.6 mb 0.00 in0.0 mm 0.00 in0.0 mm 0.00 in0.0 mm
10:49 PM 58.1°F14.5°C 41.0°F5.0°C 53% Calm Calm -- 30.02 in1016.6 mb 0.00 in0.0 mm 0.00 in0.0 mm 0.00 in0.0 mm
10:54 PM 58.3°F14.6°C 40.8°F4.9°C 52% Calm Calm -- 30.01 in1016.3 mb 0.00 in0.0 mm 0.00 in0.0 mm 0.00 in0.0 mm
10:59 PM 58.3°F14.6°C 40.8°F4.9°C 52% Calm Calm -- 30.01 in1016.3 mb 0.00 in0.0 mm 0.00 in0.0 mm 0.00 in0.0 mm
11:04 PM 58.5°F14.7°C 41.4°F5.2°C 53% Calm Calm -- 30.02 in1016.6 mb 0.00 in0.0 mm 0.00 in0.0 mm 0.00 in0.0 mm
11:09 PM 58.6°F14.8°C 41.0°F5.0°C 52% Calm Calm -- 30.02 in1016.6 mb 0.00 in0.0 mm 0.00 in0.0 mm 0.00 in0.0 mm
11:14 PM 58.8°F14.9°C 39.7°F4.3°C 49% Calm Calm -- 30.02 in1016.6 mb 0.00 in0.0 mm 0.00 in0.0 mm 0.00 in0.0 mm
11:19 PM 58.8°F14.9°C 39.7°F4.3°C 49% Calm Calm -- 30.02 in1016.6 mb 0.00 in0.0 mm 0.00 in0.0 mm 0.00 in0.0 mm
11:24 PM 58.6°F14.8°C 39.0°F3.9°C 48% Calm Calm -- 30.02 in1016.6 mb 0.00 in0.0 mm 0.00 in0.0 mm 0.00 in0.0 mm
11:29 PM 58.6°F14.8°C 39.0°F3.9°C 48% Calm Calm -- 30.02 in1016.6 mb 0.00 in0.0 mm 0.00 in0.0 mm 0.00 in0.0 mm
11:34 PM 59.2°F15.1°C 39.0°F3.9°C 47% Calm Calm -- 30.02 in1016.6 mb 0.00 in0.0 mm 0.00 in0.0 mm 0.00 in0.0 mm
11:39 PM 59.7°F15.4°C 38.8°F3.8°C 46% Calm Calm -- 30.02 in1016.6 mb 0.00 in0.0 mm 0.00 in0.0 mm 0.00 in0.0 mm
11:44 PM 59.7°F15.4°C 39.4°F4.1°C 47% Calm Calm -- 30.02 in1016.6 mb 0.00 in0.0 mm 0.00 in0.0 mm 0.00 in0.0 mm
11:49 PM 59.5°F15.3°C 39.9°F4.4°C 48% Calm Calm -- 30.02 in1016.6 mb 0.00 in0.0 mm 0.00 in0.0 mm 0.00 in0.0 mm
11:54 PM 59.2°F15.1°C 40.1°F4.5°C 49% Calm Calm -- 30.02 in1016.6 mb 0.00 in0.0 mm 0.00 in0.0 mm 0.00 in0.0 mm
11:59 PM 58.8°F14.9°C 39.7°F4.3°C 49% Calm Calm -- 30.02 in1016.6 mb 0.00 in0.0 mm 0.00 in0.0 mm 0.00 in0.0 mm